createdAt,value
2022-11-05T00:00:26.463Z,4.07
2022-11-05T00:02:53.869Z,2.90
2022-11-05T00:05:21.085Z,3.00
2022-11-05T00:07:50.213Z,3.30
2022-11-05T00:10:21.293Z,2.70
2022-11-05T00:12:48.604Z,2.83
2022-11-05T00:15:15.933Z,2.50
2022-11-05T00:17:43.234Z,3.37
2022-11-05T00:23:01.561Z,3.17
2022-11-05T00:25:30.284Z,2.00
2022-11-05T00:28:01.378Z,2.00
2022-11-05T00:30:28.877Z,2.23
2022-11-05T00:33:00.652Z,2.27
2022-11-05T00:35:51.404Z,2.23
2022-11-05T00:42:00.275Z,2.37
2022-11-05T00:44:27.546Z,2.43
2022-11-05T00:46:59.615Z,2.10
2022-11-05T00:49:27.190Z,1.87
2022-11-05T00:51:54.452Z,2.77
2022-11-05T00:54:21.697Z,3.20
2022-11-05T00:56:48.965Z,3.93
2022-11-05T00:59:17.630Z,2.30
2022-11-05T01:01:45.075Z,2.90
2022-11-05T01:04:12.374Z,2.77
2022-11-05T01:06:39.584Z,2.97
2022-11-05T01:09:06.872Z,3.20
2022-11-05T01:11:34.513Z,2.80
2022-11-05T01:14:02.247Z,2.17
2022-11-05T01:16:30.863Z,3.10
2022-11-05T01:18:58.088Z,2.67
2022-11-05T01:21:25.381Z,3.10
2022-11-05T01:23:52.602Z,2.53
2022-11-05T01:26:19.956Z,3.00
2022-11-05T01:28:50.975Z,2.73
2022-11-05T01:31:18.215Z,2.97
2022-11-05T01:33:46.855Z,2.13
2022-11-05T01:36:14.135Z,2.20
2022-11-05T01:38:41.415Z,2.20
2022-11-05T01:41:09.062Z,2.50
2022-11-05T01:43:45.888Z,2.23
2022-11-05T01:46:13.245Z,2.20
2022-11-05T01:48:40.751Z,1.87
2022-11-05T01:51:12.137Z,2.10
2022-11-05T01:53:42.596Z,1.60
2022-11-05T01:56:11.772Z,2.33
2022-11-05T01:58:41.664Z,1.40
2022-11-05T02:01:09.037Z,1.80
2022-11-05T02:03:36.704Z,1.87
2022-11-05T02:06:25.673Z,2.10
2022-11-05T02:12:05.355Z,1.80
2022-11-05T02:14:32.669Z,1.80
2022-11-05T02:17:04.585Z,1.80
2022-11-05T02:19:52.412Z,2.07
2022-11-05T02:22:38.471Z,2.00
2022-11-05T02:25:17.608Z,1.43
2022-11-05T02:27:59.726Z,2.07
2022-11-05T02:30:33.554Z,1.70
2022-11-05T02:33:24.889Z,1.63
2022-11-05T02:36:01.330Z,1.73
2022-11-05T02:38:33.128Z,1.70
2022-11-05T02:41:05.507Z,1.90
2022-11-05T02:43:37.626Z,2.00
2022-11-05T02:46:15.033Z,2.10
2022-11-05T02:48:45.381Z,2.80
2022-11-05T02:51:17.757Z,2.13
2022-11-05T02:53:49.451Z,1.70
2022-11-05T02:56:18.825Z,2.00
2022-11-05T02:58:46.021Z,1.87
2022-11-05T03:01:14.993Z,1.70
2022-11-05T03:03:43.524Z,1.93
2022-11-05T03:06:23.201Z,1.70
2022-11-05T03:09:01.001Z,1.77
2022-11-05T03:11:29.882Z,1.83
2022-11-05T03:14:00.107Z,2.07
2022-11-05T03:16:39.615Z,1.80
2022-11-05T03:19:09.437Z,1.60
2022-11-05T03:21:41.231Z,1.47
2022-11-05T03:24:10.696Z,1.90
2022-11-05T03:26:40.869Z,1.70
2022-11-05T03:29:10.329Z,1.53
2022-11-05T03:31:40.154Z,2.00
2022-11-05T03:36:46.520Z,1.80
2022-11-05T03:39:15.963Z,1.60
2022-11-05T03:41:44.532Z,1.90
2022-11-05T03:44:16.236Z,1.67
2022-11-05T03:46:48.676Z,1.97
2022-11-05T03:49:18.349Z,1.83
2022-11-05T03:51:47.925Z,1.53
2022-11-05T03:54:15.254Z,1.43
2022-11-05T03:56:45.708Z,1.83
2022-11-05T03:59:13.279Z,1.60
2022-11-05T04:01:42.550Z,1.57
2022-11-05T04:04:12.875Z,1.60
2022-11-05T04:06:40.157Z,1.57
2022-11-05T04:09:07.394Z,1.53
2022-11-05T04:11:34.635Z,1.73
2022-11-05T04:14:02.258Z,2.00
2022-11-05T04:16:35.498Z,1.60
2022-11-05T04:19:08.030Z,1.77
2022-11-05T04:21:36.763Z,1.80
2022-11-05T04:24:04.394Z,1.67
2022-11-05T04:26:31.580Z,1.80
2022-11-05T04:29:01.407Z,1.50
2022-11-05T04:31:31.002Z,1.57
2022-11-05T04:34:03.781Z,1.73
2022-11-05T04:36:31.354Z,1.40
2022-11-05T04:39:00.102Z,1.63
2022-11-05T04:41:27.429Z,1.83
2022-11-05T04:43:59.887Z,1.93
2022-11-05T04:46:48.809Z,1.67
2022-11-05T04:49:22.166Z,1.77
2022-11-05T04:51:49.454Z,1.70
2022-11-05T04:54:17.975Z,1.50
2022-11-05T04:56:45.220Z,1.77
2022-11-05T04:59:12.412Z,1.17
2022-11-05T05:01:39.804Z,2.00
2022-11-05T05:04:07.165Z,1.70
2022-11-05T05:06:34.444Z,1.50
2022-11-05T05:09:01.620Z,2.00
2022-11-05T05:11:30.233Z,1.80
2022-11-05T05:13:57.464Z,1.57
2022-11-05T05:16:25.469Z,2.00
2022-11-05T05:18:53.192Z,1.77
2022-11-05T05:21:21.169Z,1.97
2022-11-05T05:23:48.826Z,2.10
2022-11-05T05:26:16.199Z,2.17
2022-11-05T05:28:44.736Z,1.77
2022-11-05T05:31:11.965Z,1.70
2022-11-05T05:33:39.156Z,2.40
2022-11-05T05:36:11.151Z,2.10
2022-11-05T05:38:38.756Z,2.10
2022-11-05T05:41:06.368Z,2.20
2022-11-05T05:43:34.281Z,2.83
2022-11-05T05:46:03.989Z,2.00
2022-11-05T05:48:31.677Z,2.47
2022-11-05T05:51:00.485Z,2.30
2022-11-05T05:53:27.729Z,3.27
2022-11-05T05:55:55.177Z,3.07
2022-11-05T05:58:31.347Z,2.70
2022-11-05T06:01:03.664Z,2.60
2022-11-05T06:03:32.352Z,3.60
2022-11-05T06:06:03.065Z,3.37
2022-11-05T06:08:30.360Z,2.60
2022-11-05T06:10:57.868Z,3.53
2022-11-05T06:13:25.149Z,2.47
2022-11-05T06:15:52.397Z,3.10
2022-11-05T06:18:22.853Z,3.03
2022-11-05T06:20:51.422Z,3.00
2022-11-05T06:23:18.653Z,3.83
2022-11-05T06:25:45.853Z,3.50
2022-11-05T06:28:13.116Z,3.80
2022-11-05T06:30:40.376Z,3.70
2022-11-05T06:33:38.445Z,4.80
2022-11-05T06:39:17.060Z,3.77
2022-11-05T06:42:16.647Z,3.73
2022-11-05T06:44:31.577Z,3.30
2022-11-05T06:46:58.782Z,3.60
2022-11-05T06:49:25.985Z,4.07
2022-11-05T06:54:50.952Z,3.87
2022-11-05T06:57:18.150Z,3.20
2022-11-05T06:59:45.354Z,3.77
2022-11-05T07:02:31.025Z,3.90
2022-11-05T07:05:20.598Z,3.40
2022-11-05T07:07:47.844Z,3.47
2022-11-05T07:10:17.667Z,3.70
2022-11-05T07:12:45.231Z,3.70
2022-11-05T07:15:13.151Z,4.47
2022-11-05T07:17:40.666Z,3.50
2022-11-05T07:20:08.987Z,3.50
2022-11-05T07:22:36.409Z,3.50
2022-11-05T07:25:03.942Z,3.07
2022-11-05T07:27:32.608Z,3.77
2022-11-05T07:29:59.854Z,3.67
2022-11-05T07:32:27.057Z,3.57
2022-11-05T07:34:54.310Z,4.07
2022-11-05T07:37:21.576Z,4.20
2022-11-05T07:39:48.741Z,3.40
2022-11-05T07:42:16.024Z,2.83
2022-11-05T07:44:44.847Z,3.50
2022-11-05T07:47:12.101Z,3.63
2022-11-05T07:49:39.457Z,3.47
2022-11-05T07:52:06.659Z,4.00
2022-11-05T07:54:33.929Z,3.30
2022-11-05T07:57:01.223Z,3.13
2022-11-05T07:59:28.434Z,3.60
2022-11-05T08:01:57.154Z,4.23
2022-11-05T08:04:24.876Z,3.50
2022-11-05T08:06:52.100Z,3.50
2022-11-05T08:09:19.321Z,3.40
2022-11-05T08:11:46.608Z,3.50
2022-11-05T08:14:13.848Z,3.60
2022-11-05T08:16:41.069Z,4.10
2022-11-05T08:19:09.633Z,4.03
2022-11-05T08:24:26.612Z,3.50
2022-11-05T08:26:54.028Z,3.57
2022-11-05T08:29:21.250Z,3.57
2022-11-05T08:31:57.875Z,3.53
2022-11-05T08:34:50.113Z,3.23
2022-11-05T08:37:18.912Z,3.73
2022-11-05T08:39:46.113Z,3.03
2022-11-05T08:42:13.324Z,3.30
2022-11-05T08:44:40.560Z,4.43
2022-11-05T08:47:07.880Z,3.47
2022-11-05T08:49:35.289Z,3.40
2022-11-05T08:52:02.591Z,2.93
2022-11-05T08:54:31.117Z,3.33
2022-11-05T08:56:58.376Z,3.07
2022-11-05T08:59:25.649Z,3.53
2022-11-05T09:01:52.989Z,3.10
2022-11-05T09:04:20.279Z,4.33
2022-11-05T09:06:47.473Z,3.37
2022-11-05T09:09:14.734Z,2.73
2022-11-05T09:12:10.422Z,3.33
2022-11-05T09:14:30.573Z,2.90
2022-11-05T09:16:57.870Z,3.40
2022-11-05T09:19:25.392Z,4.00
2022-11-05T09:21:52.714Z,3.10
2022-11-05T09:24:20.052Z,3.50
2022-11-05T09:26:48.610Z,3.13
2022-11-05T09:29:15.804Z,3.07
2022-11-05T09:31:43.072Z,3.53
2022-11-05T09:34:10.347Z,2.93
2022-11-05T09:36:37.544Z,3.10
2022-11-05T09:39:04.901Z,2.77
2022-11-05T09:41:33.346Z,3.10
2022-11-05T09:44:02.889Z,3.17
2022-11-05T09:46:41.458Z,3.40
2022-11-05T09:49:13.103Z,2.70
2022-11-05T09:51:41.742Z,3.07
2022-11-05T09:54:10.913Z,2.70
2022-11-05T09:56:41.067Z,2.83
2022-11-05T09:59:18.592Z,3.10
2022-11-05T10:01:46.335Z,4.33
2022-11-05T10:04:15.548Z,3.50
2022-11-05T10:06:52.400Z,3.07
2022-11-05T10:09:21.408Z,2.80
2022-11-05T10:11:50.774Z,2.97
2022-11-05T10:14:22.187Z,3.60
2022-11-05T10:16:52.834Z,4.00
2022-11-05T10:19:21.545Z,3.33
2022-11-05T10:22:06.142Z,4.00
2022-11-05T10:24:34.067Z,3.27
2022-11-05T10:27:01.273Z,3.00
2022-11-05T10:29:30.637Z,3.07
2022-11-05T10:32:08.093Z,2.87
2022-11-05T10:34:38.001Z,3.03
2022-11-05T10:37:06.694Z,3.17
2022-11-05T10:39:34.940Z,2.73
2022-11-05T10:42:11.168Z,2.53
2022-11-05T10:44:42.165Z,2.70
2022-11-05T10:47:33.949Z,2.60
2022-11-05T10:50:02.055Z,2.10
2022-11-05T10:52:32.784Z,2.23
2022-11-05T10:55:01.561Z,2.30
2022-11-05T10:57:30.717Z,3.10
2022-11-05T11:00:27.906Z,2.30
2022-11-05T11:02:57.824Z,2.13
2022-11-05T11:05:40.846Z,2.47
2022-11-05T11:08:22.087Z,2.87
2022-11-05T11:10:50.289Z,2.07
2022-11-05T11:13:19.742Z,2.40
2022-11-05T11:15:47.020Z,3.10
2022-11-05T11:18:29.148Z,2.40
2022-11-05T11:21:05.565Z,2.40
2022-11-05T11:23:37.322Z,2.77
2022-11-05T11:26:05.009Z,2.13
2022-11-05T11:28:33.920Z,2.90
2022-11-05T11:31:05.573Z,2.40
2022-11-05T11:33:41.307Z,2.70
2022-11-05T11:36:11.678Z,2.70
2022-11-05T11:38:39.659Z,2.57
2022-11-05T11:41:16.419Z,3.07
2022-11-05T11:43:43.873Z,2.40
2022-11-05T11:46:15.136Z,2.27
2022-11-05T11:48:42.873Z,2.60
2022-11-05T11:51:19.670Z,2.60
2022-11-05T11:53:48.315Z,2.97
2022-11-05T11:56:17.385Z,2.93
2022-11-05T11:58:46.510Z,2.97
2022-11-05T12:01:21.834Z,3.67
2022-11-05T12:03:51.192Z,2.93
2022-11-05T12:06:39.965Z,3.23
2022-11-05T12:09:32.070Z,3.80
2022-11-05T12:12:02.830Z,3.23
2022-11-05T12:14:33.984Z,3.37
2022-11-05T12:17:09.080Z,3.40
2022-11-05T12:19:45.977Z,2.80
2022-11-05T12:22:18.016Z,3.17
2022-11-05T12:25:00.214Z,4.23
2022-11-05T12:27:34.273Z,3.33
2022-11-05T12:30:04.479Z,2.90
2022-11-05T12:32:38.262Z,3.13
2022-11-05T12:35:10.532Z,2.80
2022-11-05T12:37:42.432Z,2.63
2022-11-05T12:40:31.542Z,2.83
2022-11-05T12:43:16.899Z,2.83
2022-11-05T12:45:47.832Z,2.70
2022-11-05T12:48:24.914Z,2.73
2022-11-05T12:50:58.511Z,2.83
2022-11-05T12:53:43.621Z,3.00
2022-11-05T12:56:14.352Z,3.20
2022-11-05T13:01:45.804Z,2.90
2022-11-05T13:04:16.064Z,3.30
2022-11-05T13:06:45.714Z,3.07
2022-11-05T13:09:18.821Z,3.37
2022-11-05T13:11:49.020Z,3.13
2022-11-05T13:14:18.970Z,4.73
2022-11-05T13:16:50.140Z,3.43
2022-11-05T13:19:20.328Z,2.67
2022-11-05T13:21:50.647Z,2.50
2022-11-05T13:24:19.470Z,2.57
2022-11-05T13:26:49.236Z,3.00
2022-11-05T13:29:19.173Z,3.17
2022-11-05T13:31:50.497Z,3.10
2022-11-05T13:34:17.713Z,3.20
2022-11-05T13:36:49.646Z,2.73
2022-11-05T13:39:20.555Z,3.07
2022-11-05T13:41:54.081Z,2.33
2022-11-05T13:44:30.599Z,2.87
2022-11-05T13:47:09.384Z,3.30
2022-11-05T13:49:44.876Z,3.40
2022-11-05T13:52:22.308Z,3.57
2022-11-05T13:55:07.455Z,3.43
2022-11-05T13:57:53.551Z,3.90
2022-11-05T14:00:21.850Z,3.27
2022-11-05T14:02:51.828Z,3.13
2022-11-05T14:05:27.274Z,3.27
2022-11-05T14:07:55.244Z,3.07
2022-11-05T14:10:26.689Z,3.20
2022-11-05T14:15:35.872Z,3.00
2022-11-05T14:18:05.513Z,3.10
2022-11-05T14:20:47.122Z,3.80
2022-11-05T14:23:47.601Z,3.40
2022-11-05T14:26:17.068Z,3.57
2022-11-05T14:29:18.614Z,3.70
2022-11-05T14:32:09.548Z,3.23
2022-11-05T14:34:43.940Z,3.33
2022-11-05T14:37:30.306Z,3.73
2022-11-05T14:40:01.067Z,2.60
2022-11-05T14:42:29.209Z,3.60
2022-11-05T14:45:20.838Z,3.73
2022-11-05T14:47:52.573Z,3.63
2022-11-05T14:50:23.552Z,3.37
2022-11-05T14:52:51.829Z,3.40
2022-11-05T14:55:28.063Z,3.63
2022-11-05T14:58:03.707Z,4.20
2022-11-05T15:00:47.945Z,4.37
2022-11-05T15:03:32.394Z,3.63
2022-11-05T15:06:06.351Z,3.30
2022-11-05T15:08:37.584Z,3.97
2022-11-05T15:11:12.077Z,3.60
2022-11-05T15:13:42.922Z,3.20
2022-11-05T15:16:10.568Z,3.60
2022-11-05T15:18:40.428Z,4.33
2022-11-05T15:21:13.965Z,3.50
2022-11-05T15:23:43.236Z,4.40
2022-11-05T15:26:12.969Z,3.50
2022-11-05T15:28:45.450Z,4.77
2022-11-05T15:31:43.614Z,4.60
2022-11-05T15:34:16.961Z,4.80
2022-11-05T15:36:49.496Z,7.33
2022-11-05T15:39:29.915Z,6.70
2022-11-05T15:41:58.328Z,6.57
2022-11-05T15:44:26.637Z,5.60
2022-11-05T15:47:07.046Z,5.27
2022-11-05T15:49:34.862Z,5.13
2022-11-05T15:52:03.397Z,6.40
2022-11-05T15:54:31.311Z,5.90
2022-11-05T15:56:59.703Z,5.60
2022-11-05T15:59:28.196Z,5.20
2022-11-05T16:01:57.114Z,5.20
2022-11-05T16:04:25.833Z,5.77
2022-11-05T16:06:54.426Z,6.33
2022-11-05T16:09:24.410Z,5.37
2022-11-05T16:11:54.248Z,5.07
2022-11-05T16:14:21.461Z,5.90
2022-11-05T16:16:48.749Z,5.43
2022-11-05T16:19:35.465Z,6.30
2022-11-05T16:22:06.652Z,5.30
2022-11-05T16:24:35.217Z,5.50
2022-11-05T16:27:03.598Z,6.30
2022-11-05T16:29:33.851Z,4.77
2022-11-05T16:32:02.380Z,4.83
2022-11-05T16:34:32.791Z,4.53
2022-11-05T16:39:53.750Z,5.43
2022-11-05T16:42:44.985Z,5.03
2022-11-05T16:45:13.293Z,4.70
2022-11-05T16:47:40.823Z,6.67
2022-11-05T16:50:15.647Z,4.70
2022-11-05T16:53:01.550Z,5.27
2022-11-05T16:55:47.751Z,5.50
2022-11-05T16:58:19.458Z,4.97
2022-11-05T17:00:47.015Z,6.07
2022-11-05T17:03:14.222Z,4.60
2022-11-05T17:05:41.721Z,5.40
2022-11-05T17:08:09.079Z,6.13
2022-11-05T17:10:36.489Z,5.03
2022-11-05T17:13:05.341Z,5.10
2022-11-05T17:15:33.490Z,5.47
2022-11-05T17:18:00.736Z,6.07
2022-11-05T17:20:38.529Z,6.43
2022-11-05T17:23:08.624Z,4.87
2022-11-05T17:25:35.981Z,5.17
2022-11-05T17:28:14.182Z,5.57
2022-11-05T17:30:52.279Z,7.17
2022-11-05T17:33:21.065Z,6.37
2022-11-05T17:35:48.306Z,6.20
2022-11-05T17:38:15.556Z,5.20
2022-11-05T17:40:42.899Z,5.27
2022-11-05T17:43:10.536Z,4.27
2022-11-05T17:45:43.793Z,4.43
2022-11-05T17:48:14.330Z,6.53
2022-11-05T17:50:41.905Z,5.10
2022-11-05T17:53:09.579Z,5.50
2022-11-05T17:55:37.001Z,4.53
2022-11-05T17:58:04.380Z,5.23
2022-11-05T18:00:33.176Z,4.70
2022-11-05T18:03:01.770Z,6.80
2022-11-05T18:05:30.301Z,4.90
2022-11-05T18:07:58.188Z,6.57
2022-11-05T18:10:25.566Z,4.87
2022-11-05T18:12:52.801Z,4.80
2022-11-05T18:15:20.267Z,5.00
2022-11-05T18:17:47.489Z,6.87
2022-11-05T18:20:19.111Z,4.63
2022-11-05T18:22:47.029Z,4.47
2022-11-05T18:25:14.274Z,6.67
2022-11-05T18:27:41.773Z,5.20
2022-11-05T18:30:09.955Z,4.83
2022-11-05T18:32:37.284Z,4.47
2022-11-05T18:35:04.963Z,4.57
2022-11-05T18:37:33.530Z,5.00
2022-11-05T18:40:00.771Z,5.17
2022-11-05T18:42:27.994Z,4.90
2022-11-05T18:44:55.263Z,5.07
2022-11-05T18:47:22.549Z,5.40
2022-11-05T18:49:49.789Z,4.57
2022-11-05T18:52:17.002Z,4.63
2022-11-05T18:54:45.564Z,4.27
2022-11-05T18:57:12.834Z,4.33
2022-11-05T18:59:40.104Z,5.10
2022-11-05T19:02:08.117Z,5.23
2022-11-05T19:04:35.716Z,4.13
2022-11-05T19:07:05.087Z,4.00
2022-11-05T19:09:33.292Z,4.00
2022-11-05T19:12:02.158Z,4.33
2022-11-05T19:14:29.385Z,4.20
2022-11-05T19:16:56.657Z,3.90
2022-11-05T19:19:23.848Z,3.77
2022-11-05T19:21:51.125Z,9.37
2022-11-05T19:24:18.350Z,16.10
2022-11-05T19:26:45.622Z,5.03
2022-11-05T19:29:14.335Z,4.23
2022-11-05T19:31:41.624Z,4.63
2022-11-05T19:34:08.835Z,3.67
2022-11-05T19:36:36.198Z,5.07
2022-11-05T19:39:06.495Z,4.23
2022-11-05T19:41:37.316Z,4.97
2022-11-05T19:44:04.648Z,4.33
2022-11-05T19:46:33.596Z,4.00
2022-11-05T19:49:01.204Z,4.83
2022-11-05T19:51:30.529Z,4.73
2022-11-05T19:53:59.006Z,6.10
2022-11-05T19:56:27.416Z,4.17
2022-11-05T19:58:55.069Z,4.93
2022-11-05T20:01:23.900Z,4.20
2022-11-05T20:03:52.953Z,4.03
2022-11-05T20:06:21.450Z,3.10
2022-11-05T20:09:19.448Z,4.33
2022-11-05T20:11:36.561Z,4.23
2022-11-05T20:14:04.115Z,5.20
2022-11-05T20:16:32.946Z,3.87
2022-11-05T20:19:01.537Z,3.73
2022-11-05T20:21:29.113Z,3.80
2022-11-05T20:23:56.902Z,3.40
2022-11-05T20:26:24.428Z,3.20
2022-11-05T20:28:51.675Z,4.90
2022-11-05T20:31:19.372Z,4.03
2022-11-05T20:33:46.814Z,4.03
2022-11-05T20:36:16.770Z,4.40
2022-11-05T20:38:44.025Z,4.17
2022-11-05T20:41:12.142Z,4.57
2022-11-05T20:43:40.635Z,3.70
2022-11-05T20:46:08.269Z,3.33
2022-11-05T20:48:35.968Z,3.40
2022-11-05T20:51:05.388Z,4.30
2022-11-05T20:53:34.178Z,4.00
2022-11-05T20:56:06.543Z,3.83
2022-11-05T20:58:35.659Z,4.27
2022-11-05T21:01:03.160Z,3.70
2022-11-05T21:03:30.396Z,4.33
2022-11-05T21:05:57.707Z,4.53
2022-11-05T21:08:24.945Z,4.00
2022-11-05T21:10:53.737Z,3.97
2022-11-05T21:13:21.036Z,4.63
2022-11-05T21:15:48.951Z,4.30
2022-11-05T21:18:16.361Z,3.93
2022-11-05T21:20:43.652Z,3.43
2022-11-05T21:23:10.997Z,4.17
2022-11-05T21:25:38.338Z,4.47
2022-11-05T21:28:07.861Z,4.47
2022-11-05T21:30:35.401Z,3.90
2022-11-05T21:33:02.689Z,4.40
2022-11-05T21:35:30.057Z,4.37
2022-11-05T21:37:57.405Z,4.10
2022-11-05T21:40:24.724Z,4.40
2022-11-05T21:42:52.130Z,4.03
2022-11-05T21:45:20.705Z,4.40
2022-11-05T21:47:47.920Z,3.77
2022-11-05T21:50:19.439Z,4.10
2022-11-05T21:52:49.035Z,3.90
2022-11-05T21:55:16.393Z,4.50
2022-11-05T21:57:43.762Z,3.50
2022-11-05T22:00:11.909Z,4.57
2022-11-05T22:02:40.855Z,4.43
2022-11-05T22:05:08.768Z,5.37
2022-11-05T22:07:37.083Z,4.13
2022-11-05T22:10:10.669Z,3.70
2022-11-05T22:12:40.465Z,3.67
2022-11-05T22:15:08.258Z,3.87
2022-11-05T22:17:35.452Z,4.23
2022-11-05T22:20:04.268Z,3.53
2022-11-05T22:22:31.454Z,4.33
2022-11-05T22:24:58.657Z,4.80
2022-11-05T22:27:25.973Z,4.83
2022-11-05T22:29:53.178Z,4.43
2022-11-05T22:32:20.360Z,4.53
2022-11-05T22:34:48.520Z,4.20
2022-11-05T22:37:17.266Z,4.77
2022-11-05T22:39:44.464Z,4.73
2022-11-05T22:42:11.860Z,3.50
2022-11-05T22:44:39.246Z,4.37
2022-11-05T22:47:07.036Z,4.10
2022-11-05T22:49:34.436Z,3.47
2022-11-05T22:52:01.640Z,4.50
2022-11-05T22:54:33.816Z,4.47
2022-11-05T22:57:02.443Z,4.83
2022-11-05T22:59:29.642Z,4.70
2022-11-05T23:01:56.981Z,4.87
2022-11-05T23:04:24.361Z,5.23
2022-11-05T23:06:51.597Z,4.33
2022-11-05T23:09:20.469Z,4.17
2022-11-05T23:11:50.171Z,4.90
2022-11-05T23:14:17.452Z,4.57
2022-11-05T23:16:44.804Z,4.93
2022-11-05T23:19:12.042Z,5.10
2022-11-05T23:21:39.237Z,4.83
2022-11-05T23:24:06.793Z,4.77
2022-11-05T23:26:34.813Z,4.50
2022-11-05T23:29:04.164Z,5.23
2022-11-05T23:31:31.441Z,4.57
2022-11-05T23:33:58.642Z,5.00
2022-11-05T23:36:25.844Z,4.70
2022-11-05T23:38:53.094Z,5.40
2022-11-05T23:41:20.269Z,4.83
2022-11-05T23:43:47.646Z,3.90
2022-11-05T23:46:24.563Z,5.07
2022-11-05T23:48:52.049Z,4.60
2022-11-05T23:51:19.245Z,5.20
2022-11-05T23:53:46.473Z,4.80
2022-11-05T23:56:15.184Z,4.43
2022-11-05T23:58:42.905Z,4.77
